createdAt,value
2022-08-10T00:00:35.064Z,1.77
2022-08-10T00:03:02.700Z,2.00
2022-08-10T00:05:43.675Z,1.73
2022-08-10T00:08:23.700Z,2.00
2022-08-10T00:10:55.426Z,2.28
2022-08-10T00:13:23.994Z,1.90
2022-08-10T00:15:53.918Z,1.92
2022-08-10T00:18:34.643Z,1.90
2022-08-10T00:21:07.539Z,2.20
2022-08-10T00:23:35.499Z,1.70
2022-08-10T00:26:02.564Z,2.17
2022-08-10T00:28:29.349Z,2.25
2022-08-10T00:30:56.544Z,1.70
2022-08-10T00:33:23.302Z,1.83
2022-08-10T00:35:50.579Z,1.70
2022-08-10T00:38:17.622Z,2.05
2022-08-10T00:40:44.329Z,1.80
2022-08-10T00:43:11.019Z,1.90
2022-08-10T00:45:37.904Z,1.70
2022-08-10T00:48:04.817Z,2.15
2022-08-10T00:50:31.804Z,1.70
2022-08-10T00:52:59.020Z,1.92
2022-08-10T00:55:26.208Z,1.98
2022-08-10T00:57:55.439Z,2.03
2022-08-10T01:00:25.991Z,2.15
2022-08-10T01:02:53.163Z,2.08
2022-08-10T01:05:21.531Z,1.95
2022-08-10T01:08:06.323Z,2.75
2022-08-10T01:10:53.515Z,1.77
2022-08-10T01:13:47.952Z,1.85
2022-08-10T01:16:29.736Z,2.30
2022-08-10T01:19:22.603Z,1.95
2022-08-10T01:22:12.732Z,1.98
2022-08-10T01:24:53.911Z,2.10
2022-08-10T01:27:42.736Z,2.42
2022-08-10T01:30:14.232Z,2.25
2022-08-10T01:32:40.875Z,2.07
2022-08-10T01:35:30.877Z,2.03
2022-08-10T01:38:25.235Z,1.98
2022-08-10T01:41:00.010Z,2.10
2022-08-10T01:43:28.201Z,2.10
2022-08-10T01:45:59.511Z,1.90
2022-08-10T01:48:31.882Z,2.30
2022-08-10T01:53:55.551Z,2.13
2022-08-10T01:56:25.154Z,2.08
2022-08-10T01:59:05.936Z,2.22
2022-08-10T02:01:39.676Z,2.15
2022-08-10T02:04:09.766Z,2.20
2022-08-10T02:06:43.297Z,2.30
2022-08-10T02:09:14.040Z,2.45
2022-08-10T02:12:06.546Z,2.10
2022-08-10T02:14:34.263Z,2.03
2022-08-10T02:17:04.710Z,2.00
2022-08-10T02:19:34.604Z,2.38
2022-08-10T02:58:43.939Z,2.35
2022-08-10T03:01:18.560Z,2.40
2022-08-10T03:03:52.832Z,2.47
2022-08-10T03:06:25.314Z,2.28
2022-08-10T03:08:52.946Z,2.35
2022-08-10T03:12:35.141Z,2.22
2022-08-10T03:14:15.027Z,2.45
2022-08-10T03:16:42.781Z,2.40
2022-08-10T03:20:34.754Z,2.42
2022-08-10T03:21:59.267Z,2.58
2022-08-10T03:24:32.691Z,2.45
2022-08-10T03:27:00.867Z,2.60
2022-08-10T03:29:29.952Z,2.50
2022-08-10T03:32:17.994Z,2.65
2022-08-10T03:34:45.010Z,2.42
2022-08-10T03:37:11.743Z,2.65
2022-08-10T03:39:38.545Z,2.72
2022-08-10T03:42:07.947Z,2.28
2022-08-10T03:44:35.834Z,3.10
2022-08-10T03:47:15.938Z,2.40
2022-08-10T03:49:46.611Z,2.60
2022-08-10T03:52:15.251Z,2.38
2022-08-10T03:54:42.853Z,2.55
2022-08-10T03:57:10.678Z,1.98
2022-08-10T03:59:38.209Z,2.33
2022-08-10T04:02:47.142Z,2.40
2022-08-10T04:04:53.184Z,2.55
2022-08-10T04:07:21.506Z,2.55
2022-08-10T04:09:54.304Z,2.35
2022-08-10T04:12:23.131Z,2.30
2022-08-10T04:14:52.985Z,2.50
2022-08-10T04:18:05.115Z,2.45
2022-08-10T04:20:34.193Z,2.53
2022-08-10T04:23:06.387Z,2.95
2022-08-10T04:25:33.818Z,2.60
2022-08-10T04:28:01.111Z,2.80
2022-08-10T04:30:31.946Z,2.40
2022-08-10T04:33:01.200Z,2.45
2022-08-10T04:35:30.049Z,2.45
2022-08-10T04:37:58.182Z,2.80
2022-08-10T04:40:30.232Z,2.67
2022-08-10T04:43:11.264Z,2.60
2022-08-10T04:45:47.640Z,2.43
2022-08-10T04:48:40.839Z,3.10
2022-08-10T04:51:05.857Z,2.70
2022-08-10T04:53:32.621Z,2.70
2022-08-10T04:55:59.305Z,2.92
2022-08-10T04:58:26.018Z,2.97
2022-08-10T05:00:52.865Z,2.55
2022-08-10T05:03:19.702Z,2.60
2022-08-10T05:05:46.558Z,2.65
2022-08-10T05:08:15.470Z,3.00
2022-08-10T05:10:42.208Z,2.78
2022-08-10T05:13:08.932Z,2.78
2022-08-10T05:15:35.851Z,3.03
2022-08-10T05:18:08.746Z,2.92
2022-08-10T05:20:37.608Z,2.70
2022-08-10T05:23:04.702Z,2.85
2022-08-10T05:25:32.965Z,2.85
2022-08-10T05:28:06.469Z,2.83
2022-08-10T05:30:34.094Z,2.90
2022-08-10T05:33:05.131Z,3.38
2022-08-10T05:35:56.940Z,3.00
2022-08-10T05:38:25.531Z,2.78
2022-08-10T05:40:52.903Z,2.85
2022-08-10T05:43:21.654Z,3.03
2022-08-10T05:46:17.341Z,3.35
2022-08-10T05:48:58.001Z,2.78
2022-08-10T05:51:26.349Z,2.45
2022-08-10T05:54:02.804Z,2.50
2022-08-10T05:56:55.715Z,2.72
2022-08-10T06:00:31.185Z,2.45
2022-08-10T06:02:35.393Z,2.67
2022-08-10T06:05:11.210Z,2.90
2022-08-10T06:07:42.507Z,2.45
2022-08-10T06:10:13.872Z,2.65
2022-08-10T06:13:08.042Z,2.53
2022-08-10T06:15:56.055Z,2.90
2022-08-10T06:18:24.352Z,3.28
2022-08-10T06:20:52.331Z,2.92
2022-08-10T06:23:19.625Z,3.10
2022-08-10T06:26:09.708Z,3.38
2022-08-10T06:28:39.342Z,2.53
2022-08-10T06:31:07.660Z,2.90
2022-08-10T06:33:37.318Z,2.95
2022-08-10T06:36:07.508Z,2.72
2022-08-10T06:38:36.244Z,3.00
2022-08-10T06:41:08.419Z,3.08
2022-08-10T06:43:36.422Z,2.60
2022-08-10T06:46:16.323Z,2.60
2022-08-10T06:48:57.168Z,2.60
2022-08-10T06:51:31.903Z,2.67
2022-08-10T06:54:03.384Z,2.45
2022-08-10T06:56:36.021Z,2.70
2022-08-10T06:59:32.825Z,2.67
2022-08-10T07:02:13.396Z,2.88
2022-08-10T07:04:55.866Z,2.67
2022-08-10T07:09:58.633Z,2.67
2022-08-10T07:12:26.190Z,2.90
2022-08-10T07:14:55.041Z,2.40
2022-08-10T07:17:24.802Z,2.50
2022-08-10T07:20:00.672Z,2.65
2022-08-10T07:23:04.840Z,2.53
2022-08-10T07:25:21.456Z,2.53
2022-08-10T07:28:00.081Z,2.40
2022-08-10T07:30:32.873Z,2.78
2022-08-10T07:33:01.405Z,2.47
2022-08-10T07:35:37.071Z,2.70
2022-08-10T07:38:15.982Z,2.47
2022-08-10T07:40:43.857Z,2.75
2022-08-10T07:43:12.454Z,2.85
2022-08-10T07:45:40.337Z,2.35
2022-08-10T07:48:16.125Z,2.40
2022-08-10T07:50:45.015Z,2.15
2022-08-10T07:53:17.491Z,2.60
2022-08-10T07:56:05.316Z,2.30
2022-08-10T07:58:48.187Z,2.40
2022-08-10T08:01:22.024Z,2.20
2022-08-10T08:04:05.782Z,2.40
2022-08-10T08:06:39.191Z,2.60
2022-08-10T08:09:06.329Z,2.80
2022-08-10T08:11:33.714Z,2.20
2022-08-10T08:14:02.008Z,1.98
2022-08-10T08:16:30.933Z,1.90
2022-08-10T08:24:05.993Z,2.35
2022-08-10T08:24:37.644Z,2.22
2022-08-10T08:27:05.933Z,2.28
2022-08-10T08:29:35.902Z,2.10
2022-08-10T08:32:04.391Z,2.20
2022-08-10T08:34:34.378Z,2.38
2022-08-10T08:37:02.447Z,2.30
2022-08-10T08:39:31.775Z,2.10
2022-08-10T08:42:10.628Z,2.42
2022-08-10T08:45:15.668Z,2.30
2022-08-10T08:48:19.300Z,1.88
2022-08-10T08:51:10.731Z,2.00
2022-08-10T08:54:02.056Z,2.08
2022-08-10T08:57:08.546Z,2.42
2022-08-10T08:59:57.053Z,2.13
2022-08-10T09:02:54.890Z,1.80
2022-08-10T09:05:31.087Z,1.95
2022-08-10T09:08:36.174Z,2.10
2022-08-10T09:11:19.953Z,2.22
2022-08-10T09:14:08.540Z,2.22
2022-08-10T09:16:48.103Z,2.45
2022-08-10T09:19:46.963Z,2.00
2022-08-10T09:22:26.208Z,2.13
2022-08-10T09:25:37.445Z,2.20
2022-08-10T09:28:07.891Z,2.00
2022-08-10T09:31:10.844Z,1.88
2022-08-10T09:36:24.247Z,1.95
2022-08-10T09:36:54.708Z,2.22
2022-08-10T09:40:12.447Z,2.00
2022-08-10T09:43:23.597Z,2.15
2022-08-10T09:45:58.827Z,2.15
2022-08-10T09:48:38.487Z,2.10
2022-08-10T09:51:42.095Z,1.98
2022-08-10T09:54:43.883Z,1.92
2022-08-10T09:57:44.663Z,2.38
2022-08-10T10:03:39.376Z,2.03
2022-08-10T10:06:33.027Z,1.90
2022-08-10T10:09:10.874Z,1.73
2022-08-10T10:11:46.587Z,1.75
2022-08-10T10:14:13.918Z,2.10
2022-08-10T10:17:10.587Z,2.20
2022-08-10T10:20:02.272Z,1.90
2022-08-10T10:22:43.129Z,2.03
2022-08-10T10:25:22.650Z,2.00
2022-08-10T10:28:10.314Z,1.75
2022-08-10T10:30:50.732Z,2.17
2022-08-10T10:33:33.090Z,1.92
2022-08-10T10:38:38.102Z,1.98
2022-08-10T10:41:57.369Z,2.05
2022-08-10T10:44:43.575Z,2.33
2022-08-10T10:47:36.100Z,1.70
2022-08-10T10:50:20.990Z,1.80
2022-08-10T10:53:15.264Z,1.85
2022-08-10T10:56:15.071Z,1.90
2022-08-10T10:59:16.043Z,3.13
2022-08-10T11:02:36.517Z,1.75
2022-08-10T11:05:40.508Z,1.90
2022-08-10T11:08:28.759Z,1.98
2022-08-10T11:11:59.711Z,1.83
2022-08-10T11:14:29.686Z,2.10
2022-08-10T11:17:18.700Z,1.73
2022-08-10T11:20:15.563Z,1.60
2022-08-10T11:23:02.631Z,1.58
2022-08-10T11:25:39.774Z,2.00
2022-08-10T11:28:36.769Z,1.40
2022-08-10T11:31:16.281Z,1.70
2022-08-10T11:34:48.194Z,1.80
2022-08-10T11:37:02.715Z,2.10
2022-08-10T11:39:55.789Z,1.70
2022-08-10T11:42:36.111Z,1.67
2022-08-10T11:45:10.796Z,1.65
2022-08-10T11:47:49.940Z,1.83
2022-08-10T11:50:28.489Z,1.70
2022-08-10T11:53:17.422Z,2.03
2022-08-10T11:55:49.436Z,1.65
2022-08-10T12:01:06.363Z,1.48
2022-08-10T12:03:36.285Z,2.00
2022-08-10T12:06:06.062Z,2.15
2022-08-10T12:10:03.551Z,1.65
2022-08-10T12:11:27.184Z,1.88
2022-08-10T12:14:20.186Z,1.70
2022-08-10T12:16:51.231Z,1.75
2022-08-10T12:19:24.258Z,1.60
2022-08-10T12:22:06.307Z,1.70
2022-08-10T12:24:48.813Z,1.23
2022-08-10T12:27:37.723Z,1.30
2022-08-10T12:30:07.803Z,1.75
2022-08-10T12:32:53.205Z,1.50
2022-08-10T12:35:37.912Z,1.30
2022-08-10T12:38:24.526Z,1.85
2022-08-10T12:41:00.758Z,1.40
2022-08-10T12:44:06.990Z,1.73
2022-08-10T12:46:53.012Z,1.60
2022-08-10T12:49:28.591Z,1.50
2022-08-10T12:52:34.861Z,1.30
2022-08-10T12:55:05.096Z,1.40
2022-08-10T12:57:35.768Z,1.55
2022-08-10T13:00:04.412Z,1.65
2022-08-10T13:02:36.150Z,1.50
2022-08-10T13:08:25.093Z,1.40
2022-08-10T13:10:24.754Z,1.48
2022-08-10T13:12:54.661Z,1.90
2022-08-10T13:15:50.176Z,1.38
2022-08-10T13:18:23.509Z,1.65
2022-08-10T13:20:52.950Z,1.40
2022-08-10T13:23:27.221Z,1.88
2022-08-10T13:25:57.974Z,1.45
2022-08-10T13:28:55.113Z,1.80
2022-08-10T13:32:08.961Z,1.47
2022-08-10T13:34:42.333Z,1.40
2022-08-10T13:37:17.004Z,1.23
2022-08-10T13:39:59.441Z,1.50
2022-08-10T13:42:32.188Z,1.38
2022-08-10T13:45:15.268Z,1.40
2022-08-10T13:47:48.655Z,1.33
2022-08-10T13:50:33.740Z,1.27
2022-08-10T13:53:09.937Z,1.30
2022-08-10T13:55:54.021Z,1.10
2022-08-10T14:00:50.676Z,1.30
2022-08-10T14:03:18.700Z,1.38
2022-08-10T14:05:58.188Z,1.30
2022-08-10T14:08:31.035Z,1.30
2022-08-10T14:11:11.832Z,1.42
2022-08-10T14:13:45.634Z,1.58
2022-08-10T14:16:13.481Z,1.17
2022-08-10T14:18:44.483Z,1.52
2022-08-10T14:21:11.841Z,1.35
2022-08-10T14:23:53.154Z,1.15
2022-08-10T14:29:01.983Z,1.50
2022-08-10T14:31:34.741Z,1.77
2022-08-10T14:34:04.761Z,1.10
2022-08-10T14:36:50.823Z,1.40
2022-08-10T14:39:33.498Z,1.55
2022-08-10T14:42:16.757Z,1.40
2022-08-10T14:44:56.799Z,1.60
2022-08-10T14:47:53.510Z,1.70
2022-08-10T14:50:31.830Z,1.65
2022-08-10T14:53:15.535Z,1.48
2022-08-10T14:56:13.743Z,1.50
2022-08-10T14:59:09.894Z,1.42
2022-08-10T15:02:00.128Z,1.50
2022-08-10T15:04:28.759Z,1.35
2022-08-10T15:06:59.653Z,2.38
2022-08-10T15:09:59.172Z,3.05
2022-08-10T15:12:27.209Z,2.80
2022-08-10T15:14:58.329Z,1.55
2022-08-10T15:17:34.708Z,1.65
2022-08-10T15:20:13.579Z,1.40
2022-08-10T15:22:50.333Z,1.20
2022-08-10T15:25:24.809Z,1.50
2022-08-10T15:28:11.855Z,1.48
2022-08-10T15:30:58.643Z,1.20
2022-08-10T15:33:57.079Z,1.40
2022-08-10T15:37:36.704Z,1.30
2022-08-10T15:40:25.650Z,1.20
2022-08-10T15:42:55.137Z,1.20
2022-08-10T15:45:25.534Z,1.20
2022-08-10T15:48:02.992Z,1.10
2022-08-10T15:50:39.799Z,1.20
2022-08-10T15:53:28.203Z,1.17
2022-08-10T15:55:58.497Z,1.63
2022-08-10T15:58:52.702Z,1.20
2022-08-10T16:02:12.488Z,1.33
2022-08-10T16:05:09.723Z,1.15
2022-08-10T16:07:45.281Z,1.20
2022-08-10T16:10:25.346Z,1.50
2022-08-10T16:12:59.601Z,1.30
2022-08-10T16:15:28.865Z,1.30
2022-08-10T16:18:01.858Z,1.30
2022-08-10T16:20:53.407Z,1.38
2022-08-10T16:23:42.343Z,1.20
2022-08-10T16:26:15.592Z,1.02
2022-08-10T16:28:57.656Z,1.40
2022-08-10T16:31:27.773Z,1.30
2022-08-10T16:33:57.921Z,1.15
2022-08-10T16:36:49.312Z,1.10
2022-08-10T16:39:58.201Z,1.08
2022-08-10T16:42:24.545Z,1.30
2022-08-10T16:45:05.051Z,1.20
2022-08-10T16:47:37.254Z,1.10
2022-08-10T16:50:07.904Z,1.30
2022-08-10T16:52:35.939Z,1.30
2022-08-10T16:55:24.030Z,1.20
2022-08-10T16:57:54.294Z,1.50
2022-08-10T17:00:22.979Z,1.40
2022-08-10T17:02:53.541Z,1.45
2022-08-10T17:06:01.782Z,1.38
2022-08-10T17:08:12.828Z,1.63
2022-08-10T17:10:41.575Z,1.65
2022-08-10T17:13:10.656Z,1.80
2022-08-10T17:15:49.951Z,1.17
2022-08-10T17:18:27.471Z,1.25
2022-08-10T17:21:04.954Z,1.40
2022-08-10T17:23:35.148Z,1.20
2022-08-10T17:26:08.178Z,1.05
2022-08-10T17:28:41.058Z,1.52
2022-08-10T17:31:53.190Z,1.33
2022-08-10T17:34:17.464Z,1.27
2022-08-10T17:36:49.302Z,1.20
2022-08-10T17:39:20.677Z,1.15
2022-08-10T17:41:51.826Z,1.20
2022-08-10T17:44:19.184Z,1.33
2022-08-10T17:46:46.831Z,1.20
2022-08-10T17:49:18.863Z,1.00
2022-08-10T17:54:47.037Z,1.35
2022-08-10T17:57:20.954Z,1.30
2022-08-10T17:59:50.735Z,1.20
2022-08-10T18:02:26.683Z,1.50
2022-08-10T18:04:58.670Z,1.25
2022-08-10T18:07:35.056Z,1.42
2022-08-10T18:10:04.127Z,1.38
2022-08-10T18:13:05.794Z,1.27
2022-08-10T18:15:38.082Z,1.48
2022-08-10T18:18:10.905Z,1.40
2022-08-10T18:20:39.751Z,1.30
2022-08-10T18:23:08.123Z,1.40
2022-08-10T18:25:38.392Z,1.73
2022-08-10T18:28:09.274Z,1.50
2022-08-10T18:30:46.032Z,1.27
2022-08-10T18:33:14.341Z,1.58
2022-08-10T18:35:44.001Z,1.10
2022-08-10T18:38:13.171Z,1.63
2022-08-10T18:40:44.084Z,1.38
2022-08-10T18:44:07.263Z,1.35
2022-08-10T18:46:06.694Z,1.50
2022-08-10T18:48:40.699Z,1.60
2022-08-10T18:51:09.081Z,1.20
2022-08-10T18:53:50.658Z,1.33
2022-08-10T18:56:17.278Z,1.52
2022-08-10T18:58:50.263Z,1.50
2022-08-10T19:01:17.628Z,1.50
2022-08-10T19:04:19.491Z,1.55
2022-08-10T19:06:51.938Z,1.30
2022-08-10T19:09:47.618Z,1.58
2022-08-10T19:12:30.194Z,1.60
2022-08-10T19:15:10.306Z,1.35
2022-08-10T19:18:12.416Z,1.58
2022-08-10T19:21:02.210Z,1.65
2022-08-10T19:23:41.262Z,1.55
2022-08-10T19:26:36.500Z,1.50
2022-08-10T19:29:04.791Z,1.40
2022-08-10T19:31:45.044Z,1.45
2022-08-10T19:35:00.884Z,1.20
2022-08-10T19:38:04.348Z,1.50
2022-08-10T19:40:44.318Z,1.35
2022-08-10T19:43:20.654Z,1.77
2022-08-10T19:46:27.880Z,1.60
2022-08-10T19:49:14.018Z,1.58
2022-08-10T19:52:19.503Z,1.63
2022-08-10T19:55:17.421Z,1.30
2022-08-10T19:57:58.388Z,1.38
2022-08-10T20:00:49.244Z,1.52
2022-08-10T20:03:15.902Z,1.70
2022-08-10T20:06:13.302Z,1.55
2022-08-10T20:08:53.351Z,1.70
2022-08-10T20:11:44.951Z,1.65
2022-08-10T20:14:50.515Z,1.90
2022-08-10T20:17:51.470Z,1.45
2022-08-10T20:20:36.065Z,1.77
2022-08-10T20:23:12.579Z,1.65
2022-08-10T20:25:42.388Z,1.60
2022-08-10T20:28:37.091Z,1.83
2022-08-10T20:31:08.466Z,1.70
2022-08-10T20:33:57.507Z,1.75
2022-08-10T20:36:30.552Z,1.80
2022-08-10T20:39:09.320Z,1.70
2022-08-10T20:41:52.623Z,2.13
2022-08-10T20:44:58.305Z,1.60
2022-08-10T20:47:57.603Z,1.73
2022-08-10T20:50:43.999Z,1.80
2022-08-10T20:53:14.627Z,2.00
2022-08-10T20:55:53.661Z,2.25
2022-08-10T20:59:00.225Z,2.55
2022-08-10T21:02:19.848Z,2.20
2022-08-10T21:05:10.208Z,2.28
2022-08-10T21:08:12.007Z,2.10
2022-08-10T21:11:00.128Z,2.10
2022-08-10T21:13:48.667Z,2.60
2022-08-10T21:16:20.331Z,2.30
2022-08-10T21:19:15.331Z,2.20
2022-08-10T21:22:01.317Z,1.85
2022-08-10T21:24:35.647Z,2.03
2022-08-10T21:27:22.465Z,2.10
2022-08-10T21:30:12.182Z,1.75
2022-08-10T21:32:45.578Z,2.10
2022-08-10T21:35:37.019Z,2.22
2022-08-10T21:38:24.038Z,2.00
2022-08-10T21:41:17.070Z,1.95
2022-08-10T21:44:23.406Z,1.80
2022-08-10T21:48:07.301Z,2.00
2022-08-10T21:50:53.019Z,2.08
2022-08-10T21:56:59.539Z,2.47
2022-08-10T22:00:05.612Z,1.98
2022-08-10T22:02:58.216Z,2.33
2022-08-10T22:05:47.772Z,2.28
2022-08-10T22:08:38.509Z,1.92
2022-08-10T22:11:28.085Z,1.98
2022-08-10T22:14:15.473Z,2.17
2022-08-10T22:18:10.693Z,1.80
2022-08-10T22:20:27.186Z,1.70
2022-08-10T22:23:27.382Z,1.70
2022-08-10T22:26:40.827Z,1.83
2022-08-10T22:29:42.362Z,1.90
2022-08-10T22:31:27.693Z,2.22
2022-08-10T22:32:43.788Z,1.83
2022-08-10T22:35:55.075Z,1.92
2022-08-10T22:38:59.006Z,2.00
2022-08-10T22:42:29.618Z,2.03
2022-08-10T22:45:36.363Z,2.00
2022-08-10T22:48:24.523Z,2.00
2022-08-10T22:50:57.891Z,1.88
2022-08-10T22:53:52.221Z,1.95
2022-08-10T22:56:39.290Z,2.25
2022-08-10T22:59:08.115Z,2.30
2022-08-10T23:02:08.519Z,2.38
2022-08-10T23:04:49.171Z,1.92
2022-08-10T23:07:18.730Z,2.15
2022-08-10T23:09:50.980Z,2.35
2022-08-10T23:12:24.278Z,2.30
2022-08-10T23:15:12.895Z,2.33
2022-08-10T23:18:02.158Z,1.90
2022-08-10T23:20:30.718Z,2.22
2022-08-10T23:23:07.426Z,2.40
2022-08-10T23:25:56.489Z,2.50
2022-08-10T23:28:58.150Z,1.90
2022-08-10T23:31:13.579Z,2.13
2022-08-10T23:33:42.444Z,1.98
2022-08-10T23:36:33.596Z,2.65
2022-08-10T23:39:25.891Z,2.25
2022-08-10T23:41:53.699Z,2.28
2022-08-10T23:44:22.359Z,2.05
2022-08-10T23:46:50.214Z,1.85
2022-08-10T23:49:18.602Z,1.90
2022-08-10T23:51:55.519Z,1.88
2022-08-10T23:54:24.998Z,1.88
2022-08-10T23:56:56.726Z,1.90
2022-08-10T23:59:31.625Z,1.95
